createdAt,value
2023-04-18T00:00:24.822Z,39.08
2023-04-18T00:03:16.249Z,39.22
2023-04-18T00:05:47.474Z,39.36
2023-04-18T00:08:15.524Z,39.28
2023-04-18T00:10:43.517Z,39.28
2023-04-18T00:13:12.305Z,39.21
2023-04-18T00:15:41.924Z,39.19
2023-04-18T00:18:10.524Z,39.12
2023-04-18T00:20:39.393Z,39.06
2023-04-18T00:23:08.070Z,39.08
2023-04-18T00:25:36.053Z,39.05
2023-04-18T00:28:04.011Z,39.26
2023-04-18T00:30:32.244Z,39.42
2023-04-18T00:33:00.506Z,39.26
2023-04-18T00:35:28.859Z,39.25
2023-04-18T00:37:56.926Z,39.30
2023-04-18T00:40:25.517Z,39.15
2023-04-18T00:42:53.985Z,39.24
2023-04-18T00:45:22.463Z,39.14
2023-04-18T00:47:50.484Z,39.19
2023-04-18T00:50:18.532Z,39.33
2023-04-18T00:52:46.995Z,39.34
2023-04-18T00:55:15.050Z,39.38
2023-04-18T00:57:43.335Z,39.15
2023-04-18T01:00:12.383Z,39.18
2023-04-18T01:02:41.326Z,39.08
2023-04-18T01:05:10.010Z,39.28
2023-04-18T01:07:40.734Z,39.23
2023-04-18T01:10:10.115Z,39.26
2023-04-18T01:12:38.318Z,39.17
2023-04-18T01:15:07.394Z,39.24
2023-04-18T01:17:36.387Z,39.23
2023-04-18T01:20:06.457Z,39.34
2023-04-18T01:22:34.421Z,39.32
2023-04-18T01:25:07.192Z,39.18
2023-04-18T01:27:35.447Z,39.26
2023-04-18T01:30:04.247Z,39.29
2023-04-18T01:32:32.229Z,39.22
2023-04-18T01:35:00.485Z,39.05
2023-04-18T01:37:28.453Z,39.15
2023-04-18T01:39:58.399Z,39.11
2023-04-18T01:42:26.650Z,39.08
2023-04-18T01:44:54.824Z,39.23
2023-04-18T01:47:22.926Z,39.15
2023-04-18T01:49:50.836Z,39.24
2023-04-18T01:52:18.940Z,39.29
2023-04-18T01:54:46.989Z,39.23
2023-04-18T01:57:15.387Z,39.24
2023-04-18T01:59:43.260Z,39.19
2023-04-18T02:02:11.504Z,39.29
2023-04-18T02:04:39.729Z,39.29
2023-04-18T02:07:07.779Z,39.19
2023-04-18T02:09:36.681Z,39.09
2023-04-18T02:12:05.069Z,39.27
2023-04-18T02:14:35.028Z,39.37
2023-04-18T02:17:03.348Z,39.22
2023-04-18T02:19:31.308Z,39.21
2023-04-18T02:21:59.488Z,39.22
2023-04-18T02:24:27.419Z,39.33
2023-04-18T02:26:55.418Z,39.29
2023-04-18T02:29:23.591Z,39.17
2023-04-18T02:31:51.618Z,39.14
2023-04-18T02:34:19.663Z,39.24
2023-04-18T02:36:49.447Z,39.26
2023-04-18T02:39:17.519Z,39.25
2023-04-18T02:41:45.698Z,39.22
2023-04-18T02:44:14.138Z,39.16
2023-04-18T02:46:43.063Z,39.29
2023-04-18T02:49:13.495Z,39.17
2023-04-18T02:51:41.570Z,39.29
2023-04-18T02:54:09.735Z,39.29
2023-04-18T02:56:48.060Z,39.19
2023-04-18T02:59:36.302Z,39.25
2023-04-18T03:02:26.314Z,39.27
2023-04-18T03:04:57.089Z,39.29
2023-04-18T03:07:25.288Z,39.38
2023-04-18T03:09:54.293Z,39.33
2023-04-18T03:12:28.304Z,39.39
2023-04-18T03:14:56.411Z,39.31
2023-04-18T03:17:24.586Z,39.28
2023-04-18T03:19:53.461Z,39.30
2023-04-18T03:22:21.778Z,39.35
2023-04-18T03:24:56.234Z,39.30
2023-04-18T03:27:32.607Z,39.37
2023-04-18T03:30:01.995Z,39.30
2023-04-18T03:32:33.938Z,39.20
2023-04-18T03:35:02.968Z,39.30
2023-04-18T03:37:31.032Z,39.12
2023-04-18T03:40:00.949Z,39.15
2023-04-18T03:42:29.735Z,39.13
2023-04-18T03:44:58.222Z,39.21
2023-04-18T03:47:26.860Z,39.20
2023-04-18T03:49:57.405Z,39.17
2023-04-18T03:52:27.516Z,39.27
2023-04-18T03:54:57.240Z,39.19
2023-04-18T03:57:27.397Z,39.18
2023-04-18T03:59:55.501Z,39.21
2023-04-18T04:02:23.793Z,39.19
2023-04-18T04:04:52.131Z,39.05
2023-04-18T04:07:20.895Z,39.22
2023-04-18T04:09:48.865Z,39.16
2023-04-18T04:12:17.556Z,39.18
2023-04-18T04:14:45.513Z,39.14
2023-04-18T04:17:13.798Z,39.14
2023-04-18T04:19:41.802Z,39.20
2023-04-18T04:22:13.636Z,39.15
2023-04-18T04:24:42.960Z,39.20
2023-04-18T04:27:13.668Z,39.18
2023-04-18T04:29:43.904Z,39.29
2023-04-18T04:32:13.642Z,41.04
2023-04-18T04:34:42.500Z,42.39
2023-04-18T04:37:18.855Z,43.82
2023-04-18T04:40:01.059Z,44.23
2023-04-18T04:42:41.419Z,44.56
2023-04-18T04:45:15.239Z,44.60
2023-04-18T04:47:44.194Z,44.95
2023-04-18T04:50:15.771Z,45.14
2023-04-18T04:52:44.049Z,45.22
2023-04-18T04:55:12.118Z,45.56
2023-04-18T04:57:41.727Z,45.30
2023-04-18T05:00:27.009Z,45.13
2023-04-18T05:02:55.943Z,45.53
2023-04-18T05:05:24.792Z,45.99
2023-04-18T05:07:52.853Z,45.99
2023-04-18T05:10:21.946Z,46.03
2023-04-18T05:12:50.027Z,46.10
2023-04-18T05:15:18.505Z,46.16
2023-04-18T05:17:46.747Z,46.21
2023-04-18T05:20:15.171Z,46.19
2023-04-18T05:22:43.434Z,46.05
2023-04-18T05:25:12.605Z,46.16
2023-04-18T05:27:40.809Z,44.57
2023-04-18T05:30:09.493Z,42.97
2023-04-18T05:32:39.207Z,44.41
2023-04-18T05:35:08.121Z,44.52
2023-04-18T05:37:36.411Z,44.22
2023-04-18T05:40:05.210Z,44.17
2023-04-18T05:42:33.233Z,44.10
2023-04-18T05:45:01.304Z,44.19
2023-04-18T05:47:30.595Z,44.25
2023-04-18T05:49:58.682Z,43.87
2023-04-18T05:52:26.860Z,43.85
2023-04-18T05:54:55.045Z,43.88
2023-04-18T05:57:23.514Z,43.59
2023-04-18T05:59:51.475Z,43.43
2023-04-18T06:02:19.566Z,43.00
2023-04-18T06:04:49.268Z,42.92
2023-04-18T06:07:17.430Z,42.95
2023-04-18T06:09:45.723Z,42.86
2023-04-18T06:12:13.686Z,42.70
2023-04-18T06:14:41.569Z,42.58
2023-04-18T06:17:10.307Z,42.49
2023-04-18T06:19:39.754Z,42.23
2023-04-18T06:22:08.337Z,42.09
2023-04-18T06:24:37.443Z,42.19
2023-04-18T06:27:05.608Z,41.90
2023-04-18T06:29:35.577Z,42.21
2023-04-18T06:32:05.021Z,41.87
2023-04-18T06:34:33.141Z,41.86
2023-04-18T06:37:01.120Z,41.73
2023-04-18T06:39:29.136Z,41.65
2023-04-18T06:41:58.118Z,41.52
2023-04-18T06:44:29.606Z,41.43
2023-04-18T06:46:57.771Z,41.47
2023-04-18T06:49:26.696Z,41.45
2023-04-18T06:51:55.031Z,41.22
2023-04-18T06:54:23.030Z,41.19
2023-04-18T06:56:51.365Z,41.08
2023-04-18T06:59:21.644Z,41.01
2023-04-18T07:01:50.870Z,41.03
2023-04-18T07:04:19.538Z,40.83
2023-04-18T07:06:48.070Z,40.96
2023-04-18T07:09:17.392Z,40.41
2023-04-18T07:11:45.446Z,39.07
2023-04-18T07:14:13.688Z,38.90
2023-04-18T07:16:42.081Z,38.95
2023-04-18T07:19:10.183Z,39.08
2023-04-18T07:21:40.785Z,39.10
2023-04-18T07:24:08.755Z,39.34
2023-04-18T07:26:38.473Z,39.35
2023-04-18T07:29:06.659Z,39.09
2023-04-18T07:31:35.008Z,39.11
2023-04-18T07:34:03.298Z,39.17
2023-04-18T07:36:31.771Z,39.06
2023-04-18T07:38:59.840Z,39.10
2023-04-18T07:41:28.029Z,39.18
2023-04-18T07:43:56.087Z,39.22
2023-04-18T07:46:24.207Z,39.07
2023-04-18T07:48:52.344Z,39.12
2023-04-18T07:51:20.703Z,39.18
2023-04-18T07:53:48.793Z,39.00
2023-04-18T07:56:16.864Z,39.03
2023-04-18T07:58:44.825Z,38.98
2023-04-18T08:01:15.479Z,38.15
2023-04-18T08:03:43.764Z,37.51
2023-04-18T08:06:12.118Z,37.66
2023-04-18T08:08:40.196Z,37.94
2023-04-18T08:11:08.234Z,37.40
2023-04-18T08:13:36.334Z,36.52
2023-04-18T08:16:04.548Z,35.76
2023-04-18T08:18:32.802Z,35.73
2023-04-18T08:21:00.865Z,36.14
2023-04-18T08:23:28.971Z,36.43
2023-04-18T08:25:57.006Z,36.50
2023-04-18T08:28:27.642Z,36.49
2023-04-18T08:30:56.701Z,36.59
2023-04-18T08:33:24.912Z,36.59
2023-04-18T08:35:52.914Z,36.63
2023-04-18T08:38:20.873Z,36.74
2023-04-18T08:40:49.017Z,36.68
2023-04-18T08:43:17.294Z,36.35
2023-04-18T08:46:03.378Z,36.50
2023-04-18T08:48:52.761Z,36.54
2023-04-18T08:51:22.367Z,36.57
2023-04-18T08:53:50.835Z,36.59
2023-04-18T08:56:22.458Z,36.60
2023-04-18T08:58:50.884Z,36.71
2023-04-18T09:01:19.098Z,36.72
2023-04-18T09:04:06.421Z,36.81
2023-04-18T09:06:36.181Z,36.90
2023-04-18T09:09:04.574Z,36.84
2023-04-18T09:11:34.472Z,36.97
2023-04-18T09:14:02.806Z,36.98
2023-04-18T09:16:34.411Z,37.06
2023-04-18T09:19:13.617Z,37.19
2023-04-18T09:21:44.508Z,37.14
2023-04-18T09:24:30.575Z,37.16
2023-04-18T09:26:59.993Z,37.15
2023-04-18T09:29:49.602Z,37.19
2023-04-18T09:32:27.683Z,37.27
2023-04-18T09:35:03.936Z,36.70
2023-04-18T09:37:32.616Z,36.26
2023-04-18T09:40:00.688Z,36.01
2023-04-18T09:42:29.882Z,36.08
2023-04-18T09:45:03.902Z,36.19
2023-04-18T09:47:35.124Z,36.23
2023-04-18T09:50:08.398Z,36.24
2023-04-18T09:52:37.849Z,36.09
2023-04-18T09:55:07.776Z,36.20
2023-04-18T09:57:36.544Z,36.15
2023-04-18T10:00:08.814Z,35.99
2023-04-18T10:03:00.604Z,36.01
2023-04-18T10:05:31.778Z,35.95
2023-04-18T10:08:00.100Z,35.90
2023-04-18T10:10:28.023Z,35.60
2023-04-18T10:12:57.425Z,35.68
2023-04-18T10:15:27.054Z,35.57
2023-04-18T10:18:05.818Z,35.51
2023-04-18T10:20:35.456Z,35.47
2023-04-18T10:23:34.873Z,35.31
2023-04-18T10:26:04.076Z,35.14
2023-04-18T10:28:54.920Z,35.07
2023-04-18T10:31:24.542Z,34.90
2023-04-18T10:36:28.908Z,34.68
2023-04-18T10:39:20.321Z,34.58
2023-04-18T10:41:50.632Z,34.50
2023-04-18T10:44:20.786Z,34.41
2023-04-18T10:46:51.854Z,34.43
2023-04-18T10:54:58.373Z,34.15
2023-04-18T10:57:38.189Z,33.94
2023-04-18T11:00:11.441Z,33.93
2023-04-18T11:02:40.502Z,33.98
2023-04-18T11:05:09.869Z,33.94
2023-04-18T11:07:39.516Z,33.86
2023-04-18T11:10:09.174Z,33.84
2023-04-18T11:12:38.920Z,33.74
2023-04-18T11:15:15.312Z,33.79
2023-04-18T11:17:43.900Z,33.77
2023-04-18T11:20:14.016Z,33.68
2023-04-18T11:22:48.981Z,33.59
2023-04-18T11:25:17.712Z,33.40
2023-04-18T11:27:51.729Z,35.39
2023-04-18T11:30:19.901Z,35.36
2023-04-18T11:32:48.071Z,34.68
2023-04-18T11:35:16.407Z,34.19
2023-04-18T11:37:46.121Z,33.50
2023-04-18T11:40:14.569Z,32.87
2023-04-18T11:42:42.698Z,32.70
2023-04-18T11:45:12.103Z,32.82
2023-04-18T11:47:41.881Z,32.83
2023-04-18T11:50:11.634Z,32.91
2023-04-18T11:52:41.341Z,32.82
2023-04-18T11:55:18.630Z,32.92
2023-04-18T12:03:17.344Z,33.56
2023-04-18T12:05:46.133Z,34.02
2023-04-18T12:08:19.141Z,34.02
2023-04-18T12:10:50.908Z,33.98
2023-04-18T12:13:19.475Z,34.07
2023-04-18T12:23:37.211Z,34.16
2023-04-18T12:26:07.127Z,34.07
2023-04-18T12:28:35.548Z,34.14
2023-04-18T12:31:07.123Z,34.25
2023-04-18T12:33:36.883Z,34.15
2023-04-18T12:36:06.226Z,32.94
2023-04-18T12:38:34.285Z,24.71
2023-04-18T12:41:02.572Z,24.31
2023-04-18T12:43:30.747Z,24.57
2023-04-18T12:45:59.720Z,25.71
2023-04-18T12:48:28.112Z,25.97
2023-04-18T12:50:56.281Z,26.75
2023-04-18T12:53:24.247Z,26.97
2023-04-18T12:55:52.336Z,27.35
2023-04-18T12:58:21.009Z,27.42
2023-04-18T13:00:49.317Z,27.71
2023-04-18T13:03:17.692Z,28.07
2023-04-18T13:05:46.253Z,28.33
2023-04-18T13:08:17.560Z,28.15
2023-04-18T13:10:47.769Z,28.33
2023-04-18T13:13:16.173Z,28.07
2023-04-18T13:15:44.274Z,27.17
2023-04-18T13:18:12.548Z,27.00
2023-04-18T13:20:40.925Z,27.06
2023-04-18T13:23:09.008Z,26.88
2023-04-18T13:25:37.195Z,26.70
2023-04-18T13:28:05.865Z,27.48
2023-04-18T13:30:35.746Z,27.22
2023-04-18T13:33:04.116Z,27.59
2023-04-18T13:35:33.558Z,27.85
2023-04-18T13:38:01.625Z,27.65
2023-04-18T13:40:29.789Z,27.83
2023-04-18T13:42:58.085Z,28.13
2023-04-18T13:45:26.146Z,27.97
2023-04-18T13:47:54.268Z,27.70
2023-04-18T13:50:23.529Z,27.64
2023-04-18T13:52:52.234Z,27.52
2023-04-18T13:55:20.292Z,27.36
2023-04-18T13:57:48.559Z,27.41
2023-04-18T14:00:16.993Z,27.11
2023-04-18T14:02:45.400Z,27.50
2023-04-18T14:05:13.901Z,27.60
2023-04-18T14:07:42.292Z,27.53
2023-04-18T14:10:11.136Z,27.50
2023-04-18T14:12:40.131Z,27.64
2023-04-18T14:15:09.476Z,28.03
2023-04-18T14:17:37.570Z,28.72
2023-04-18T14:20:06.843Z,29.47
2023-04-18T14:22:34.921Z,30.21
2023-04-18T14:25:02.945Z,30.78
2023-04-18T14:27:31.267Z,31.49
2023-04-18T14:29:59.142Z,31.39
2023-04-18T14:32:29.372Z,31.68
2023-04-18T14:34:59.060Z,31.75
2023-04-18T14:37:27.025Z,31.88
2023-04-18T14:39:55.100Z,32.21
2023-04-18T14:42:23.293Z,32.19
2023-04-18T14:44:51.437Z,32.35
2023-04-18T14:47:20.137Z,32.51
2023-04-18T14:49:48.229Z,32.67
2023-04-18T14:52:16.105Z,32.78
2023-04-18T14:54:44.177Z,32.86
2023-04-18T14:57:13.141Z,33.25
2023-04-18T14:59:41.204Z,33.56
2023-04-18T15:02:09.210Z,33.52
2023-04-18T15:04:37.549Z,33.52
2023-04-18T15:07:06.240Z,33.63
2023-04-18T15:09:37.872Z,34.08
2023-04-18T15:12:06.691Z,34.02
2023-04-18T15:14:35.898Z,33.93
2023-04-18T15:17:05.695Z,33.90
2023-04-18T15:19:33.762Z,33.90
2023-04-18T15:22:02.042Z,33.97
2023-04-18T15:24:29.935Z,34.08
2023-04-18T15:26:59.076Z,34.26
2023-04-18T15:29:27.311Z,34.40
2023-04-18T15:31:55.491Z,34.40
2023-04-18T15:44:02.845Z,34.83
2023-04-18T15:46:30.812Z,34.92
2023-04-18T15:48:59.078Z,34.79
2023-04-18T15:51:28.523Z,34.55
2023-04-18T15:53:56.762Z,34.63
2023-04-18T15:56:26.251Z,34.67
2023-04-18T15:58:57.688Z,34.60
2023-04-18T16:01:25.776Z,34.62
2023-04-18T16:03:53.999Z,34.61
2023-04-18T16:06:23.423Z,34.53
2023-04-18T16:08:51.515Z,34.73
2023-04-18T16:11:20.005Z,34.77
2023-04-18T16:13:47.964Z,34.90
2023-04-18T16:16:16.985Z,35.28
2023-04-18T16:18:45.449Z,35.37
2023-04-18T16:21:15.082Z,35.61
2023-04-18T16:23:43.539Z,35.74
2023-04-18T16:26:11.608Z,36.13
2023-04-18T16:28:39.785Z,36.79
2023-04-18T16:31:07.700Z,32.72
2023-04-18T16:33:35.849Z,30.84
2023-04-18T16:36:04.824Z,29.99
2023-04-18T16:38:33.086Z,29.40
2023-04-18T16:41:01.726Z,28.93
2023-04-18T16:43:36.639Z,28.99
2023-04-18T16:46:05.144Z,31.08
2023-04-18T16:48:33.190Z,32.82
2023-04-18T16:51:01.238Z,33.47
2023-04-18T16:53:29.318Z,33.81
2023-04-18T16:55:57.715Z,34.00
2023-04-18T16:58:26.155Z,34.08
2023-04-18T17:00:55.076Z,34.30
2023-04-18T17:03:23.200Z,34.68
2023-04-18T17:05:51.505Z,34.93
2023-04-18T17:08:19.610Z,34.93
2023-04-18T17:10:47.661Z,35.07
2023-04-18T17:13:15.729Z,35.10
2023-04-18T17:15:44.470Z,35.18
2023-04-18T17:18:12.796Z,35.33
2023-04-18T17:20:41.173Z,35.42
2023-04-18T17:23:09.167Z,35.54
2023-04-18T17:25:37.213Z,35.71
2023-04-18T17:28:05.400Z,35.82
2023-04-18T17:30:33.561Z,35.78
2023-04-18T17:33:01.682Z,35.88
2023-04-18T17:35:29.916Z,35.88
2023-04-18T17:37:58.181Z,36.04
2023-04-18T17:40:26.373Z,36.29
2023-04-18T17:42:54.536Z,36.24
2023-04-18T17:45:22.630Z,36.37
2023-04-18T17:47:51.053Z,36.47
2023-04-18T17:50:19.667Z,36.59
2023-04-18T17:52:47.652Z,36.58
2023-04-18T17:55:15.940Z,36.61
2023-04-18T17:57:44.078Z,36.67
2023-04-18T18:00:13.913Z,36.92
2023-04-18T18:02:43.032Z,37.00
2023-04-18T18:05:13.554Z,37.06
2023-04-18T18:07:46.004Z,37.11
2023-04-18T18:10:19.076Z,37.28
2023-04-18T18:12:47.161Z,37.32
2023-04-18T18:15:15.543Z,37.73
2023-04-18T18:17:43.637Z,37.69
2023-04-18T18:20:12.193Z,37.89
2023-04-18T18:22:40.884Z,38.14
2023-04-18T18:25:09.562Z,38.51
2023-04-18T18:27:37.808Z,38.63
2023-04-18T18:30:06.333Z,39.00
2023-04-18T18:32:34.432Z,39.09
2023-04-18T18:35:02.750Z,39.09
2023-04-18T18:37:33.219Z,39.18
2023-04-18T18:40:04.744Z,39.20
2023-04-18T18:42:33.036Z,39.11
2023-04-18T18:45:01.850Z,39.16
2023-04-18T18:47:30.821Z,39.14
2023-04-18T18:49:58.987Z,39.12
2023-04-18T18:52:29.864Z,39.17
2023-04-18T18:54:58.094Z,39.12
2023-04-18T18:57:26.383Z,38.92
2023-04-18T18:59:55.873Z,38.79
2023-04-18T19:02:24.538Z,38.84
2023-04-18T19:04:53.310Z,38.74
2023-04-18T19:07:21.527Z,38.67
2023-04-18T19:09:49.717Z,38.66
2023-04-18T19:12:17.913Z,38.61
2023-04-18T19:14:47.600Z,38.40
2023-04-18T19:17:18.040Z,38.45
2023-04-18T19:19:46.194Z,38.34
2023-04-18T19:22:14.384Z,38.29
2023-04-18T19:24:42.387Z,38.21
2023-04-18T19:27:10.518Z,38.25
2023-04-18T19:29:39.195Z,38.21
2023-04-18T19:32:08.505Z,38.18
2023-04-18T19:34:37.422Z,38.15
2023-04-18T19:37:05.570Z,38.21
2023-04-18T19:39:33.650Z,38.06
2023-04-18T19:42:02.835Z,38.00
2023-04-18T19:44:31.324Z,38.07
2023-04-18T19:46:59.511Z,37.89
2023-04-18T19:49:27.770Z,37.91
2023-04-18T19:51:56.148Z,37.84
2023-04-18T19:54:24.083Z,37.86
2023-04-18T19:56:52.183Z,37.79
2023-04-18T19:59:20.358Z,37.66
2023-04-18T20:01:48.538Z,37.69
2023-04-18T20:04:16.701Z,37.83
2023-04-18T20:06:45.504Z,38.04
2023-04-18T20:09:16.952Z,38.42
2023-04-18T20:11:46.657Z,38.81
2023-04-18T20:14:14.945Z,39.05
2023-04-18T20:16:43.119Z,39.11
2023-04-18T20:19:12.846Z,39.41
2023-04-18T20:21:41.404Z,39.42
2023-04-18T20:24:09.886Z,39.43
2023-04-18T20:26:37.958Z,39.47
2023-04-18T20:29:06.033Z,39.34
2023-04-18T20:31:35.234Z,39.57
2023-04-18T20:34:03.302Z,39.53
2023-04-18T20:36:32.298Z,39.40
2023-04-18T20:39:02.525Z,39.32
2023-04-18T20:41:32.646Z,39.18
2023-04-18T20:44:05.341Z,39.10
2023-04-18T20:46:33.534Z,39.07
2023-04-18T20:49:01.778Z,38.96
2023-04-18T20:51:30.068Z,38.91
2023-04-18T20:53:58.132Z,38.93
2023-04-18T20:56:26.391Z,38.95
2023-04-18T20:58:54.572Z,38.87
2023-04-18T21:01:22.977Z,38.93
2023-04-18T21:03:51.426Z,38.90
2023-04-18T21:06:22.198Z,39.01
2023-04-18T21:08:50.948Z,39.01
2023-04-18T21:11:19.134Z,39.05
2023-04-18T21:13:47.086Z,38.90
2023-04-18T21:16:15.310Z,39.00
2023-04-18T21:18:43.774Z,39.03
2023-04-18T21:21:11.996Z,38.93
2023-04-18T21:23:43.819Z,38.85
2023-04-18T21:26:13.234Z,38.95
2023-04-18T21:29:04.735Z,39.10
2023-04-18T21:31:33.833Z,39.13
2023-04-18T21:34:04.256Z,39.34
2023-04-18T21:36:32.718Z,39.50
2023-04-18T21:39:01.036Z,39.55
2023-04-18T21:41:29.671Z,39.43
2023-04-18T21:43:57.943Z,39.37
2023-04-18T21:46:26.582Z,39.36
2023-04-18T21:48:54.729Z,39.32
2023-04-18T21:51:22.786Z,39.21
2023-04-18T21:53:51.055Z,39.15
2023-04-18T21:56:19.140Z,39.13
2023-04-18T21:58:47.811Z,39.03
2023-04-18T22:01:15.750Z,38.96
2023-04-18T22:03:43.972Z,38.98
2023-04-18T22:06:12.543Z,38.91
2023-04-18T22:08:42.260Z,38.93
2023-04-18T22:11:11.886Z,38.99
2023-04-18T22:13:39.917Z,38.90
2023-04-18T22:16:09.573Z,38.79
2023-04-18T22:18:38.081Z,38.72
2023-04-18T22:21:06.905Z,38.86
2023-04-18T22:23:34.995Z,38.79
2023-04-18T22:26:03.055Z,38.78
2023-04-18T22:28:31.232Z,38.85
2023-04-18T22:31:00.061Z,38.80
2023-04-18T22:33:28.607Z,38.73
2023-04-18T22:35:56.691Z,38.75
2023-04-18T22:38:25.358Z,38.67
2023-04-18T22:40:53.639Z,38.68
2023-04-18T22:43:23.757Z,38.54
2023-04-18T22:45:51.992Z,38.55
2023-04-18T22:48:20.442Z,38.55
2023-04-18T22:50:50.020Z,38.53
2023-04-18T22:53:18.506Z,38.46
2023-04-18T22:55:46.902Z,38.60
2023-04-18T22:58:15.158Z,38.47
2023-04-18T23:00:43.440Z,38.42
2023-04-18T23:03:11.677Z,38.37
2023-04-18T23:05:40.206Z,38.37
2023-04-18T23:08:08.490Z,38.47
2023-04-18T23:10:36.745Z,38.40
2023-04-18T23:13:04.712Z,38.42
2023-04-18T23:15:33.010Z,38.28
2023-04-18T23:18:01.384Z,38.35
2023-04-18T23:20:29.447Z,38.33
2023-04-18T23:22:57.729Z,38.34
2023-04-18T23:25:25.707Z,38.25
2023-04-18T23:27:53.866Z,38.32
2023-04-18T23:30:22.034Z,38.36
2023-04-18T23:32:50.150Z,38.16
2023-04-18T23:35:18.291Z,38.25
2023-04-18T23:37:46.368Z,38.23
2023-04-18T23:40:15.481Z,38.26
2023-04-18T23:42:44.437Z,38.28
2023-04-18T23:45:12.936Z,38.32
2023-04-18T23:47:41.056Z,38.31
2023-04-18T23:50:09.794Z,38.31
2023-04-18T23:52:39.124Z,38.38
2023-04-18T23:55:07.869Z,38.28
2023-04-18T23:57:36.058Z,38.27
